Time;durP1;ratioP1;P1;durP2;ratioP2;P2;SDS_P1;SDS_P2;PMS_P1;PMS_P2;Temp;Humidity;BMP_temperature;BMP_pressure;BME280_temperature;BME280_humidity;BME280_pressure;Samples;Min_cycle;Max_cycle;Signal;HPM_P1;HPM_P2
2021/08/24 00:02:08;;;;;;;8.48;4.68;;;15.30;99.90;;;;;;5096216;28;20050;-71
2021/08/24 00:04:34;;;;;;;14.02;5.20;;;15.20;99.90;;;;;;5096323;28;20028;-70
2021/08/24 00:07:00;;;;;;;8.85;4.50;;;15.20;99.90;;;;;;5096181;28;20039;-70
2021/08/24 00:09:26;;;;;;;10.00;5.20;;;15.20;99.90;;;;;;5096239;28;20024;-70
2021/08/24 00:11:52;;;;;;;9.70;4.63;;;15.20;99.90;;;;;;5096044;28;20030;-70
2021/08/24 00:14:18;;;;;;;12.10;4.72;;;15.20;99.90;;;;;;5096241;28;20088;-70
2021/08/24 00:16:44;;;;;;;9.60;5.15;;;15.10;99.90;;;;;;5096079;28;20021;-70
2021/08/24 00:19:11;;;;;;;10.63;4.90;;;15.00;99.90;;;;;;5096295;28;20020;-70
2021/08/24 00:21:38;;;;;;;12.32;4.90;;;15.10;99.90;;;;;;5097309;28;20099;-70
2021/08/24 00:24:05;;;;;;;9.23;4.78;;;15.00;99.90;;;;;;5099504;28;20024;-70
2021/08/24 00:26:31;;;;;;;8.30;4.93;;;15.00;99.90;;;;;;5099524;28;20442;-70
2021/08/24 00:28:57;;;;;;;14.48;4.90;;;15.00;99.90;;;;;;5099819;28;20047;-70
2021/08/24 00:31:23;;;;;;;9.10;5.40;;;15.00;99.90;;;;;;5099540;28;20391;-70
2021/08/24 00:33:49;;;;;;;13.63;6.30;;;15.00;99.90;;;;;;5099560;28;20528;-70
2021/08/24 00:36:17;;;;;;;9.40;4.72;;;14.90;99.90;;;;;;5099389;28;20399;-70
2021/08/24 00:38:43;;;;;;;12.60;4.97;;;14.90;99.90;;;;;;5099264;28;20027;-70
2021/08/24 00:41:09;;;;;;;8.45;5.25;;;14.90;99.90;;;;;;5099067;28;20518;-70
2021/08/24 00:43:39;;;;;;;7.03;4.97;;;14.80;99.90;;;;;;5099640;28;20480;-70
2021/08/24 00:46:13;;;;;;;9.48;5.03;;;14.80;99.90;;;;;;5099307;28;20042;-70
2021/08/24 00:48:41;;;;;;;7.75;4.78;;;14.80;99.90;;;;;;5099357;28;20024;-70
2021/08/24 00:51:08;;;;;;;6.53;4.72;;;14.80;99.90;;;;;;5097781;28;20490;-70
2021/08/24 00:53:36;;;;;;;9.38;4.80;;;14.80;99.90;;;;;;5098802;28;20430;-70
2021/08/24 00:56:04;;;;;;;12.00;5.97;;;14.80;99.90;;;;;;5099086;28;20048;-71
2021/08/24 00:58:30;;;;;;;10.25;4.97;;;14.70;99.90;;;;;;5098986;28;20031;-70
2021/08/24 01:00:56;;;;;;;9.35;5.45;;;14.80;99.90;;;;;;5099483;28;20476;-70
2021/08/24 01:03:26;;;;;;;8.05;5.35;;;14.70;99.90;;;;;;5098776;28;20047;-70
2021/08/24 01:05:58;;;;;;;7.93;5.13;;;14.70;99.90;;;;;;5099147;28;20024;-70
2021/08/24 01:09:08;;;;;;;10.38;5.60;;;14.70;99.90;;;;;;5098731;28;20031;-70
2021/08/24 01:11:36;;;;;;;8.07;5.28;;;14.60;99.90;;;;;;5065525;28;20041;-70
2021/08/24 01:14:02;;;;;;;9.02;5.47;;;14.70;99.90;;;;;;5098870;28;20373;-70
2021/08/24 01:16:37;;;;;;;11.02;4.72;;;14.60;99.90;;;;;;5097511;28;20016;-70
2021/08/24 01:19:06;;;;;;;10.63;6.22;;;14.60;99.90;;;;;;5098777;28;20031;-70
2021/08/24 01:22:10;;;;;;;13.65;5.97;;;14.60;99.90;;;;;;5098581;28;20024;-70
2021/08/24 01:24:42;;;;;;;8.77;5.43;;;14.60;99.90;;;;;;5098096;28;20028;-70
2021/08/24 01:27:18;;;;;;;7.95;5.82;;;14.60;99.90;;;;;;5098548;28;20024;-70
2021/08/24 01:29:59;;;;;;;8.68;5.65;;;14.60;99.90;;;;;;5098458;28;20127;-70
2021/08/24 01:32:52;;;;;;;10.68;6.55;;;14.50;99.90;;;;;;5097964;28;20028;-70
2021/08/24 01:35:27;;;;;;;9.57;6.18;;;14.60;99.90;;;;;;5098545;28;20060;-70
2021/08/24 01:38:20;;;;;;;11.82;5.85;;;14.60;99.90;;;;;;5098231;28;20024;-70
2021/08/24 01:41:05;;;;;;;13.23;5.95;;;14.50;99.90;;;;;;5097941;28;20020;-70
2021/08/24 01:43:48;;;;;;;7.07;6.30;;;14.60;99.90;;;;;;5096823;28;20031;-70
2021/08/24 01:46:30;;;;;;;10.15;5.78;;;14.40;99.90;;;;;;5098258;28;20031;-70
2021/08/24 01:49:00;;;;;;;10.30;6.10;;;14.60;99.90;;;;;;5098237;28;20103;-70
2021/08/24 01:51:30;;;;;;;13.15;6.10;;;14.50;99.90;;;;;;5098176;28;20056;-70
2021/08/24 01:54:04;;;;;;;12.60;5.10;;;14.60;99.90;;;;;;5096298;28;20503;-70
2021/08/24 01:56:37;;;;;;;17.55;7.53;;;14.50;99.90;;;;;;5097859;28;20056;-70
2021/08/24 01:59:30;;;;;;;8.95;5.63;;;14.40;99.90;;;;;;5097859;28;20020;-70
2021/08/24 02:02:07;;;;;;;16.40;6.68;;;14.40;99.90;;;;;;5097880;28;20400;-70
2021/08/24 02:04:44;;;;;;;11.35;6.18;;;14.50;99.90;;;;;;5097860;28;20100;-70
2021/08/24 02:07:10;;;;;;;6.90;5.07;;;14.30;99.90;;;;;;5097755;28;20028;-70
2021/08/24 02:09:42;;;;;;;12.82;7.00;;;14.40;99.90;;;;;;5095998;28;20510;-70
2021/08/24 02:12:10;;;;;;;15.43;6.93;;;14.40;99.90;;;;;;5097796;28;20032;-70
2021/08/24 02:14:41;;;;;;;21.10;9.88;;;14.30;99.90;;;;;;5097527;28;20031;-70
2021/08/24 02:17:10;;;;;;;13.95;6.00;;;14.40;99.90;;;;;;5097610;28;20035;-70
2021/08/24 02:20:17;;;;;;;16.05;6.95;;;14.30;99.90;;;;;;5096069;28;20095;-70
2021/08/24 02:22:46;;;;;;;6.53;5.22;;;14.40;99.90;;;;;;5091980;28;20032;-70
2021/08/24 02:25:15;;;;;;;16.38;7.10;;;14.30;99.90;;;;;;5097181;28;20396;-70
2021/08/24 02:27:50;;;;;;;14.18;6.57;;;14.40;99.90;;;;;;5097267;28;20400;-70
2021/08/24 02:30:17;;;;;;;10.07;6.43;;;14.30;99.90;;;;;;5097507;28;20028;-70
2021/08/24 02:32:46;;;;;;;12.82;5.75;;;14.40;99.90;;;;;;5097011;28;20392;-70
2021/08/24 02:35:35;;;;;;;8.93;5.18;;;14.30;99.90;;;;;;5097336;28;20028;-70
2021/08/24 02:38:28;;;;;;;9.50;5.00;;;14.30;99.90;;;;;;5097334;28;20062;-70
2021/08/24 02:41:06;;;;;;;10.63;5.32;;;14.30;99.90;;;;;;5095787;28;20028;-70
2021/08/24 02:43:48;;;;;;;12.07;6.82;;;14.30;99.90;;;;;;5097258;28;20028;-70
2021/08/24 02:46:17;;;;;;;11.95;5.57;;;14.20;99.90;;;;;;5096400;28;20085;-70
2021/08/24 02:48:48;;;;;;;14.50;6.53;;;14.20;99.90;;;;;;5096971;28;20440;-70
2021/08/24 02:51:17;;;;;;;10.43;6.05;;;14.10;99.90;;;;;;5097153;28;20073;-70
2021/08/24 02:53:48;;;;;;;15.15;6.63;;;14.20;99.90;;;;;;5096522;28;20106;-70
2021/08/24 02:56:14;;;;;;;9.77;5.85;;;14.30;99.90;;;;;;5096912;28;20048;-70
2021/08/24 02:58:40;;;;;;;16.67;6.47;;;14.20;99.90;;;;;;5096770;28;20396;-70
2021/08/24 03:01:06;;;;;;;11.23;6.18;;;14.20;99.90;;;;;;5095612;28;20023;-70
2021/08/24 03:03:32;;;;;;;9.27;5.85;;;14.10;99.90;;;;;;5096836;28;20035;-70
2021/08/24 03:05:59;;;;;;;13.65;5.57;;;14.10;99.90;;;;;;5095766;28;20450;-70
2021/08/24 03:08:26;;;;;;;8.18;5.45;;;14.00;99.90;;;;;;5096605;28;20023;-70
2021/08/24 03:10:52;;;;;;;16.35;6.55;;;14.10;99.90;;;;;;5096896;28;20039;-70
2021/08/24 03:13:25;;;;;;;8.73;6.28;;;14.00;99.90;;;;;;5096677;28;20024;-70
2021/08/24 03:16:12;;;;;;;12.50;5.82;;;13.90;99.90;;;;;;5095735;28;20052;-70
2021/08/24 03:18:49;;;;;;;10.25;6.03;;;14.00;99.90;;;;;;5096710;28;20058;-70
2021/08/24 03:21:20;;;;;;;16.85;7.15;;;13.90;99.90;;;;;;5096672;28;20050;-70
2021/08/24 03:23:48;;;;;;;12.05;6.97;;;13.90;99.90;;;;;;5096529;28;20020;-70
2021/08/24 03:26:21;;;;;;;10.95;6.75;;;14.00;99.90;;;;;;5096669;28;20028;-70
2021/08/24 03:28:46;;;;;;;11.20;5.80;;;13.90;99.90;;;;;;5095306;28;20051;-70
2021/08/24 03:31:16;;;;;;;17.30;7.55;;;14.10;99.90;;;;;;5096514;28;20037;-70
2021/08/24 03:33:42;;;;;;;12.30;7.55;;;13.90;99.90;;;;;;5096703;28;20021;-70
2021/08/24 03:36:08;;;;;;;12.23;7.07;;;14.00;99.90;;;;;;5096488;28;20043;-70
2021/08/24 03:38:34;;;;;;;8.85;6.95;;;13.90;99.90;;;;;;5096362;28;20027;-70
2021/08/24 03:41:04;;;;;;;21.33;8.00;;;13.90;99.90;;;;;;5096517;28;20506;-70
2021/08/24 03:43:29;;;;;;;11.52;6.50;;;14.00;99.90;;;;;;5095282;28;20111;-70
2021/08/24 03:45:55;;;;;;;8.25;6.47;;;14.00;99.90;;;;;;5096491;28;20082;-70
2021/08/24 03:48:21;;;;;;;12.38;6.03;;;13.80;99.90;;;;;;5096607;28;20028;-70
2021/08/24 03:50:47;;;;;;;14.45;7.43;;;13.80;99.90;;;;;;5096390;28;20028;-70
2021/08/24 03:53:13;;;;;;;13.25;6.40;;;13.90;99.90;;;;;;5096192;28;20021;-70
2021/08/24 03:55:39;;;;;;;11.52;6.68;;;13.90;99.90;;;;;;5095853;28;20032;-70
2021/08/24 03:58:05;;;;;;;15.18;8.10;;;13.90;99.90;;;;;;5100209;28;20016;-70
2021/08/24 04:00:30;;;;;;;22.30;8.02;;;13.70;99.90;;;;;;5100173;28;20531;-70
2021/08/24 04:02:56;;;;;;;14.55;7.57;;;13.90;99.90;;;;;;5100210;28;20020;-70
2021/08/24 04:05:22;;;;;;;12.57;7.43;;;13.70;99.90;;;;;;5099931;28;20039;-70
2021/08/24 04:07:48;;;;;;;14.68;7.43;;;13.80;99.90;;;;;;5100175;28;20082;-70
2021/08/24 04:10:14;;;;;;;14.48;7.43;;;13.90;99.90;;;;;;5098245;28;20028;-70
2021/08/24 04:12:41;;;;;;;16.65;7.78;;;13.70;99.90;;;;;;5099916;28;20020;-70
2021/08/24 04:15:09;;;;;;;11.90;7.70;;;13.90;99.90;;;;;;5099911;28;20490;-70
2021/08/24 04:17:37;;;;;;;12.48;7.35;;;13.80;99.90;;;;;;5099815;28;20016;-71
2021/08/24 04:20:09;;;;;;;15.13;8.25;;;13.70;99.90;;;;;;5099720;28;20048;-70
2021/08/24 04:22:38;;;;;;;18.60;7.35;;;13.80;99.90;;;;;;5099821;28;20476;-70
2021/08/24 04:25:04;;;;;;;11.73;7.47;;;13.70;99.90;;;;;;5099538;28;20099;-70
2021/08/24 04:27:30;;;;;;;11.57;6.90;;;13.80;99.90;;;;;;5099706;28;20020;-70
2021/08/24 04:29:55;;;;;;;10.45;7.13;;;13.80;99.90;;;;;;5099949;28;20048;-70
2021/08/24 04:32:28;;;;;;;13.75;7.95;;;13.70;99.90;;;;;;5098159;28;20024;-70
2021/08/24 04:34:54;;;;;;;18.25;8.63;;;13.90;99.90;;;;;;5086968;28;20042;-70
2021/08/24 04:37:21;;;;;;;11.77;7.85;;;13.80;99.90;;;;;;5099520;28;20079;-70
2021/08/24 04:39:46;;;;;;;11.40;7.95;;;13.70;99.90;;;;;;5099199;28;20384;-70
2021/08/24 04:42:12;;;;;;;12.50;8.10;;;13.70;99.90;;;;;;5099395;28;20020;-70
2021/08/24 04:44:38;;;;;;;12.32;7.75;;;13.80;99.90;;;;;;5099653;28;20080;-70
2021/08/24 04:47:04;;;;;;;13.30;8.52;;;13.70;99.90;;;;;;5099302;28;20076;-70
2021/08/24 04:49:31;;;;;;;13.60;8.15;;;13.60;99.90;;;;;;5099546;28;20459;-70
2021/08/24 04:51:56;;;;;;;13.45;7.85;;;13.70;99.90;;;;;;5097787;28;20096;-70
2021/08/24 04:54:22;;;;;;;12.77;8.00;;;13.80;99.90;;;;;;5099019;28;20459;-70
2021/08/24 04:56:48;;;;;;;14.38;8.38;;;13.70;99.90;;;;;;5098833;28;20060;-70
2021/08/24 04:59:14;;;;;;;26.25;9.75;;;13.60;99.90;;;;;;5099177;28;20020;-70
2021/08/24 05:01:40;;;;;;;15.77;8.13;;;13.70;99.90;;;;;;5097577;28;20051;-70
2021/08/24 05:04:06;;;;;;;16.13;7.97;;;13.70;99.90;;;;;;5099108;28;20032;-70
2021/08/24 05:06:33;;;;;;;13.63;9.15;;;13.60;99.90;;;;;;5098861;28;20369;-69
2021/08/24 05:08:59;;;;;;;14.50;8.15;;;13.60;99.90;;;;;;5097805;28;20051;-70
2021/08/24 05:11:25;;;;;;;11.70;8.27;;;13.60;99.90;;;;;;5094353;28;20028;-70
2021/08/24 05:13:51;;;;;;;11.32;7.88;;;13.50;99.90;;;;;;5098978;28;20032;-70
2021/08/24 05:16:18;;;;;;;11.40;8.07;;;13.70;99.90;;;;;;5098047;28;20065;-69
2021/08/24 05:18:44;;;;;;;15.00;8.70;;;13.60;99.90;;;;;;5096110;28;20103;-70
2021/08/24 05:21:16;;;;;;;13.00;8.93;;;13.60;99.90;;;;;;5098518;28;20059;-70
2021/08/24 05:23:42;;;;;;;15.65;8.18;;;13.50;99.90;;;;;;5098380;28;20032;-70
2021/08/24 05:26:10;;;;;;;12.95;8.55;;;13.60;99.90;;;;;;5098052;28;20073;-70
2021/08/24 05:28:37;;;;;;;15.65;8.98;;;13.50;99.90;;;;;;5098344;28;20114;-70
2021/08/24 05:31:04;;;;;;;11.65;8.00;;;13.60;99.90;;;;;;5109576;28;20028;-70
2021/08/24 05:33:31;;;;;;;17.42;8.93;;;13.70;99.90;;;;;;5097861;28;20032;-70
2021/08/24 05:35:58;;;;;;;17.90;9.52;;;13.60;99.90;;;;;;5098427;28;20107;-67
2021/08/24 05:38:24;;;;;;;16.13;10.05;;;13.60;99.90;;;;;;5096328;28;20445;-70
2021/08/24 05:40:50;;;;;;;14.18;8.35;;;13.50;99.90;;;;;;5097734;28;20020;-70
2021/08/24 05:43:16;;;;;;;17.17;9.20;;;13.70;99.90;;;;;;5096582;28;20024;-70
2021/08/24 05:45:42;;;;;;;10.35;7.68;;;13.70;99.90;;;;;;5098122;28;20103;-70
2021/08/24 05:48:07;;;;;;;13.50;8.48;;;13.80;99.90;;;;;;5098216;28;20507;-70
2021/08/24 05:50:33;;;;;;;16.67;9.32;;;13.90;99.90;;;;;;5098086;28;20055;-70
2021/08/24 05:52:59;;;;;;;15.30;8.85;;;13.90;99.90;;;;;;5097901;28;20475;-70
2021/08/24 05:55:25;;;;;;;13.70;8.00;;;13.70;99.90;;;;;;5097384;28;20086;-70
2021/08/24 05:57:52;;;;;;;14.07;9.15;;;13.90;99.90;;;;;;5098061;28;20484;-70
2021/08/24 06:00:18;;;;;;;17.13;8.00;;;13.90;99.90;;;;;;5097782;28;20484;-70
2021/08/24 06:02:45;;;;;;;14.50;8.50;;;14.00;99.90;;;;;;5096477;28;20012;-70
2021/08/24 06:05:11;;;;;;;11.98;7.63;;;14.10;99.90;;;;;;5097587;28;20032;-70
2021/08/24 06:07:38;;;;;;;15.57;8.55;;;13.90;99.90;;;;;;5097763;28;20172;-70
2021/08/24 06:10:06;;;;;;;14.52;8.20;;;14.10;99.90;;;;;;5097115;28;20144;-70
2021/08/24 06:12:32;;;;;;;12.50;9.13;;;14.10;99.90;;;;;;5097456;28;20024;-70
2021/08/24 06:14:58;;;;;;;15.43;8.65;;;14.40;99.90;;;;;;5097538;28;20024;-70
2021/08/24 06:17:25;;;;;;;17.75;9.88;;;14.40;99.90;;;;;;5097842;28;20021;-70
2021/08/24 06:19:50;;;;;;;22.15;10.07;;;14.50;99.90;;;;;;5097105;28;20069;-70
2021/08/24 06:22:16;;;;;;;13.25;9.35;;;14.30;99.90;;;;;;5097563;28;20024;-70
2021/08/24 06:24:42;;;;;;;14.48;8.40;;;14.60;99.90;;;;;;5096844;28;20055;-70
2021/08/24 06:27:08;;;;;;;13.98;9.23;;;14.60;99.90;;;;;;5097426;28;20108;-70
2021/08/24 06:29:34;;;;;;;12.20;9.68;;;14.80;99.90;;;;;;5097244;28;20047;-70
2021/08/24 06:32:04;;;;;;;11.73;8.20;;;14.70;99.90;;;;;;5097157;28;20019;-70
2021/08/24 06:34:31;;;;;;;13.40;8.35;;;14.90;99.90;;;;;;5095778;28;20032;-70
2021/08/24 06:36:58;;;;;;;11.65;8.35;;;15.00;99.90;;;;;;5096049;28;20024;-70
2021/08/24 06:39:23;;;;;;;15.10;9.48;;;15.30;99.90;;;;;;5097106;28;20016;-70
2021/08/24 06:41:50;;;;;;;12.82;9.05;;;15.10;99.90;;;;;;5095785;28;20567;-70
2021/08/24 06:44:15;;;;;;;17.23;10.50;;;15.40;99.90;;;;;;5096976;28;20059;-70
2021/08/24 06:46:41;;;;;;;13.32;8.27;;;15.50;99.90;;;;;;5095727;28;20043;-70
2021/08/24 06:49:08;;;;;;;18.98;8.82;;;15.70;99.90;;;;;;5096919;28;20392;-70
2021/08/24 06:51:35;;;;;;;16.35;8.48;;;15.60;99.90;;;;;;5096918;28;20115;-70
2021/08/24 06:54:02;;;;;;;10.13;8.23;;;15.90;99.90;;;;;;5096367;28;20028;-70
2021/08/24 06:56:31;;;;;;;11.70;8.10;;;16.10;99.90;;;;;;5096797;28;20047;-70
2021/08/24 06:58:58;;;;;;;10.07;7.63;;;16.20;99.90;;;;;;5096952;28;20035;-70
2021/08/24 07:01:27;;;;;;;12.57;7.63;;;16.30;99.90;;;;;;5097070;28;20028;-70
2021/08/24 07:03:55;;;;;;;14.43;8.02;;;16.20;99.90;;;;;;5095410;28;20110;-70
2021/08/24 07:06:21;;;;;;;12.48;8.00;;;16.30;99.90;;;;;;5096933;28;20459;-70
2021/08/24 07:08:48;;;;;;;14.02;7.65;;;16.30;99.90;;;;;;5096466;28;20024;-70
2021/08/24 07:11:14;;;;;;;14.45;8.55;;;16.10;99.90;;;;;;5096799;28;20077;-70
2021/08/24 07:13:39;;;;;;;16.63;9.50;;;16.20;99.90;;;;;;5095176;28;20058;-69
2021/08/24 07:16:08;;;;;;;10.40;7.82;;;16.20;99.90;;;;;;5096838;28;20028;-69
2021/08/24 07:18:35;;;;;;;13.27;8.32;;;16.10;99.90;;;;;;5096554;28;20066;-70
2021/08/24 07:21:02;;;;;;;15.77;9.45;;;16.20;99.90;;;;;;5095322;28;20033;-70
2021/08/24 07:23:28;;;;;;;17.08;9.40;;;16.30;99.90;;;;;;5096618;28;20031;-70
2021/08/24 07:25:53;;;;;;;13.07;8.73;;;16.20;99.90;;;;;;5096567;28;20028;-69
2021/08/24 07:28:19;;;;;;;14.90;9.82;;;16.30;99.90;;;;;;5096817;28;20020;-70
2021/08/24 07:30:50;;;;;;;12.15;9.27;;;16.30;99.90;;;;;;5096502;28;20028;-70
2021/08/24 07:33:17;;;;;;;11.93;8.70;;;16.40;99.90;;;;;;5100410;28;20027;-70
2021/08/24 07:35:43;;;;;;;12.85;9.43;;;16.30;99.90;;;;;;5100535;28;20446;-70
2021/08/24 07:38:08;;;;;;;15.02;9.73;;;16.30;99.90;;;;;;5100257;28;20028;-70
2021/08/24 07:40:34;;;;;;;12.75;8.85;;;16.20;99.90;;;;;;5100239;28;20016;-70
2021/08/24 07:43:00;;;;;;;13.07;8.90;;;16.20;99.90;;;;;;5100582;28;20040;-70
2021/08/24 07:45:27;;;;;;;10.43;8.57;;;16.20;99.90;;;;;;5100476;28;20035;-70
2021/08/24 07:47:52;;;;;;;12.07;9.10;;;16.20;99.90;;;;;;5100457;28;20032;-70
2021/08/24 07:50:19;;;;;;;12.00;9.48;;;16.30;99.90;;;;;;5100308;28;20028;-70
2021/08/24 07:52:45;;;;;;;14.63;9.65;;;16.20;99.90;;;;;;5100369;28;20016;-70
2021/08/24 07:55:12;;;;;;;15.00;9.65;;;16.20;99.90;;;;;;5099630;28;20036;-71
2021/08/24 07:57:38;;;;;;;11.93;9.93;;;16.30;99.90;;;;;;5100365;28;20024;-71
2021/08/24 08:00:05;;;;;;;10.82;8.48;;;16.20;99.90;;;;;;5100073;28;20487;-70
2021/08/24 08:02:31;;;;;;;18.13;10.23;;;16.30;99.90;;;;;;5100110;28;20411;-70
2021/08/24 08:04:56;;;;;;;11.98;9.88;;;16.30;99.90;;;;;;5100268;28;20034;-70
2021/08/24 08:07:23;;;;;;;15.18;11.93;;;16.40;99.90;;;;;;5100224;28;20083;-70
2021/08/24 08:09:49;;;;;;;15.55;11.50;;;16.40;99.90;;;;;;5099527;28;20135;-70
2021/08/24 08:12:18;;;;;;;16.92;11.88;;;16.30;99.90;;;;;;5099938;28;20063;-70
2021/08/24 08:14:44;;;;;;;23.17;13.07;;;16.30;99.90;;;;;;5099747;28;20484;-70
2021/08/24 08:17:11;;;;;;;17.35;11.75;;;16.30;99.90;;;;;;5100000;28;20020;-70
2021/08/24 08:19:38;;;;;;;16.95;12.70;;;16.20;99.90;;;;;;5099737;28;20054;-70
2021/08/24 08:22:05;;;;;;;20.30;11.02;;;16.20;99.90;;;;;;5099883;28;20045;-70
2021/08/24 08:24:31;;;;;;;15.20;11.98;;;16.40;99.90;;;;;;5099230;28;20119;-70
2021/08/24 08:26:58;;;;;;;14.73;11.10;;;16.30;99.90;;;;;;5099930;28;20480;-70
2021/08/24 08:29:24;;;;;;;16.50;11.25;;;16.50;99.90;;;;;;5099697;28;20133;-70
2021/08/24 08:31:50;;;;;;;17.08;13.05;;;16.60;99.90;;;;;;5099513;28;20020;-70
2021/08/24 08:34:18;;;;;;;17.20;11.88;;;16.70;99.90;;;;;;5099340;28;20028;-70
2021/08/24 08:36:45;;;;;;;14.63;11.88;;;16.70;99.90;;;;;;5099632;28;20556;-70
2021/08/24 08:39:12;;;;;;;13.65;11.15;;;16.70;99.90;;;;;;5098934;28;20031;-70
2021/08/24 08:41:59;;;;;;;12.98;11.10;;;16.80;99.90;;;;;;5099398;28;20055;-70
2021/08/24 08:44:52;;;;;;;12.75;10.80;;;16.80;99.90;;;;;;5099509;28;20024;-70
2021/08/24 08:47:36;;;;;;;15.45;11.05;;;16.90;99.90;;;;;;5099268;28;20266;-70
2021/08/24 08:50:26;;;;;;;20.08;12.98;;;17.00;99.90;;;;;;5099220;28;20069;-70
2021/08/24 08:53:06;;;;;;;14.75;11.68;;;17.00;99.90;;;;;;5091556;28;20040;-70
2021/08/24 08:55:47;;;;;;;13.93;10.93;;;16.90;99.90;;;;;;5098847;28;20036;-70
2021/08/24 08:58:28;;;;;;;13.02;11.18;;;16.90;99.90;;;;;;5099112;28;20020;-70
2021/08/24 09:01:15;;;;;;;13.00;11.40;;;16.90;99.90;;;;;;5097893;28;20038;-70
2021/08/24 09:04:16;;;;;;;15.30;11.60;;;17.00;99.90;;;;;;5099121;28;20051;-70
2021/08/24 09:06:47;;;;;;;15.35;11.93;;;17.00;99.90;;;;;;5071475;28;20447;-70
2021/08/24 09:09:13;;;;;;;19.27;12.82;;;17.00;99.90;;;;;;5098589;28;20031;-70
2021/08/24 09:11:44;;;;;;;17.75;11.82;;;;;;;;;;5098720;28;20024;-70
2021/08/24 09:14:26;;;;;;;13.35;11.30;;;17.20;99.90;;;;;;5098666;28;20024;-70
2021/08/24 09:17:09;;;;;;;15.10;12.02;;;17.40;99.90;;;;;;5098638;28;20384;-70
2021/08/24 09:19:51;;;;;;;13.38;9.93;;;17.40;99.90;;;;;;5098641;28;20476;-70
2021/08/24 09:22:18;;;;;;;16.65;11.10;;;17.50;99.90;;;;;;5097429;28;20028;-70
2021/08/24 09:24:45;;;;;;;21.85;13.23;;;17.50;99.90;;;;;;5096644;28;20028;-70
2021/08/24 09:27:17;;;;;;;14.20;10.20;;;17.60;99.90;;;;;;5098566;28;20024;-70
2021/08/24 09:29:45;;;;;;;23.88;14.13;;;17.50;99.90;;;;;;5097041;28;20028;-70
2021/08/24 09:32:23;;;;;;;17.23;12.57;;;17.60;99.90;;;;;;5098287;28;20016;-71
2021/08/24 09:34:51;;;;;;;16.67;10.90;;;17.70;99.90;;;;;;5085553;28;20020;-70
2021/08/24 09:37:21;;;;;;;14.52;10.30;;;17.70;99.90;;;;;;5096849;28;20081;-70
2021/08/24 09:40:00;;;;;;;13.65;12.02;;;17.70;99.90;;;;;;5098027;28;20030;-70
2021/08/24 09:42:32;;;;;;;15.38;10.63;;;17.70;99.90;;;;;;5098355;28;20052;-71
2021/08/24 09:45:01;;;;;;;15.95;12.55;;;17.80;99.90;;;;;;5097012;28;20088;-71
2021/08/24 09:47:28;;;;;;;20.08;11.23;;;17.80;99.90;;;;;;5098204;28;20056;-70
2021/08/24 09:50:13;;;;;;;14.13;12.38;;;17.90;99.90;;;;;;5098212;28;20027;-70
2021/08/24 09:52:39;;;;;;;16.53;11.83;;;17.90;99.90;;;;;;5098204;28;20032;-70
2021/08/24 09:55:11;;;;;;;15.25;10.77;;;18.00;99.90;;;;;;5096719;28;20282;-70
2021/08/24 09:57:51;;;;;;;17.77;13.23;;;18.30;99.90;;;;;;5098177;28;20027;-70
2021/08/24 10:00:25;;;;;;;13.18;11.20;;;18.80;99.90;;;;;;5097798;28;20020;-70
2021/08/24 10:02:52;;;;;;;11.25;10.02;;;;;;;;;;5097806;28;20028;-71
2021/08/24 10:05:21;;;;;;;15.15;11.77;;;19.60;99.90;;;;;;5097757;28;20376;-70
2021/08/24 10:07:49;;;;;;;15.10;10.35;;;20.10;99.90;;;;;;5097836;28;20017;-71
2021/08/24 10:10:37;;;;;;;14.60;9.95;;;20.80;99.90;;;;;;5097198;28;20525;-70
2021/08/24 10:13:36;;;;;;;12.05;9.18;;;21.30;99.90;;;;;;5097463;28;20027;-70
2021/08/24 10:16:27;;;;;;;15.43;10.32;;;22.00;99.90;;;;;;5097703;28;20024;-71
2021/08/24 10:19:25;;;;;;;10.95;8.23;;;22.20;99.90;;;;;;5097896;28;20020;-70
2021/08/24 10:21:50;;;;;;;10.55;8.30;;;22.30;99.90;;;;;;5093446;28;20094;-71
2021/08/24 10:24:22;;;;;;;9.10;8.20;;;;;;;;;;5095638;28;20028;-71
2021/08/24 10:26:55;;;;;;;9.95;6.25;;;23.50;99.90;;;;;;5097519;28;20023;-71
2021/08/24 10:29:30;;;;;;;10.25;8.00;;;24.80;99.90;;;;;;5097226;28;20028;-71
2021/08/24 10:32:02;;;;;;;10.57;6.57;;;25.00;99.90;;;;;;5097454;28;20515;-71
2021/08/24 10:34:41;;;;;;;7.88;6.50;;;25.00;99.90;;;;;;5097192;28;20277;-71
2021/08/24 10:37:26;;;;;;;11.48;7.25;;;;;;;;;;5097519;28;20024;-71
2021/08/24 10:40:13;;;;;;;8.10;6.20;;;26.20;99.90;;;;;;5096832;28;20162;-71
2021/08/24 10:42:59;;;;;;;9.48;7.07;;;;;;;;;;5097051;28;20047;-71
2021/08/24 10:45:32;;;;;;;5.70;5.10;;;27.50;99.90;;;;;;5089779;28;20114;-71
2021/08/24 10:47:59;;;;;;;4.40;3.97;;;;;;;;;;5095738;28;20501;-73
2021/08/24 10:50:50;;;;;;;10.63;6.75;;;28.60;99.90;;;;;;5097155;28;20051;-71
2021/08/24 10:53:38;;;;;;;6.22;5.63;;;28.40;99.10;;;;;;5096473;28;20117;-71
2021/08/24 10:56:33;;;;;;;5.28;3.88;;;27.50;99.90;;;;;;5096761;28;20101;-72
2021/08/24 10:59:23;;;;;;;6.50;4.97;;;27.20;99.90;;;;;;5096880;28;20425;-70
2021/08/24 11:02:20;;;;;;;6.15;4.95;;;27.30;99.90;;;;;;5096714;28;20016;-71
2021/08/24 11:05:19;;;;;;;8.52;5.43;;;27.10;99.90;;;;;;5067427;28;20033;-71
2021/08/24 11:07:53;;;;;;;6.57;4.85;;;27.60;99.90;;;;;;5062035;28;20481;-71
2021/08/24 11:10:39;;;;;;;5.25;3.97;;;27.70;99.90;;;;;;5095207;28;20078;-71
2021/08/24 11:13:30;;;;;;;6.22;4.40;;;27.70;99.90;;;;;;5096496;28;20028;-71
2021/08/24 11:16:18;;;;;;;5.88;4.80;;;28.80;99.90;;;;;;5097010;28;20020;-71
2021/08/24 11:18:49;;;;;;;12.50;5.68;;;27.00;99.90;;;;;;5095423;28;20021;-71
2021/08/24 11:21:46;;;;;;;5.75;4.28;;;27.10;99.30;;;;;;5096561;28;20380;-71
2021/08/24 11:24:57;;;;;;;3.97;3.25;;;28.80;97.40;;;;;;5096295;28;20058;-71
2021/08/24 11:27:50;;;;;;;6.82;4.22;;;29.50;96.90;;;;;;5096830;28;20066;-71
2021/08/24 11:30:28;;;;;;;4.40;3.63;;;30.50;96.00;;;;;;5096727;28;20069;-71
2021/08/24 11:33:01;;;;;;;6.30;3.75;;;31.00;94.20;;;;;;5096390;28;20065;-71
2021/08/24 11:36:03;;;;;;;2.90;2.38;;;32.20;93.70;;;;;;5096814;28;20433;-72
2021/08/24 11:38:44;;;;;;;3.78;3.28;;;32.90;92.70;;;;;;5063890;28;20068;-72
2021/08/24 11:41:20;;;;;;;4.78;3.75;;;32.90;93.00;;;;;;5095305;28;20024;-71
2021/08/24 11:44:03;;;;;;;5.35;3.67;;;32.70;90.50;;;;;;5096512;28;20016;-71
2021/08/24 11:46:48;;;;;;;3.85;2.97;;;30.00;91.30;;;;;;5096629;28;20077;-72
2021/08/24 11:49:21;;;;;;;4.88;3.60;;;29.00;91.60;;;;;;5096349;28;20050;-70
2021/08/24 11:52:14;;;;;;;4.30;2.72;;;28.80;92.60;;;;;;5095039;28;20377;-71
2021/08/24 11:55:03;;;;;;;4.13;3.60;;;28.60;93.40;;;;;;5095434;28;20032;-71
2021/08/24 11:57:36;;;;;;;5.72;2.70;;;28.60;93.60;;;;;;5096053;28;20055;-71
2021/08/24 12:00:05;;;;;;;6.07;3.50;;;29.00;92.90;;;;;;5096377;28;20020;-71
2021/08/24 12:02:41;;;;;;;4.07;2.53;;;28.80;92.80;;;;;;5096453;28;20028;-71
2021/08/24 12:05:33;;;;;;;3.85;2.78;;;28.30;92.80;;;;;;5096244;28;20020;-70
2021/08/24 12:08:05;;;;;;;3.70;2.85;;;28.70;99.40;;;;;;5095612;28;20442;-71
2021/08/24 12:10:35;;;;;;;5.15;3.40;;;30.10;93.50;;;;;;5096584;28;20490;-71
2021/08/24 12:13:05;;;;;;;2.78;1.83;;;31.40;92.00;;;;;;5095922;28;20048;-71
2021/08/24 12:15:39;;;;;;;3.17;2.83;;;32.60;91.30;;;;;;5096400;28;20102;-72
2021/08/24 12:18:26;;;;;;;3.65;2.65;;;32.20;88.90;;;;;;5098227;28;20056;-71
2021/08/24 12:21:22;;;;;;;7.18;3.22;;;32.30;86.30;;;;;;5099888;28;20024;-71
2021/08/24 12:23:47;;;;;;;2.95;2.55;;;32.30;87.50;;;;;;5098020;28;20035;-71
2021/08/24 12:26:34;;;;;;;3.65;2.97;;;32.10;87.50;;;;;;5098289;28;20379;-71
2021/08/24 12:29:35;;;;;;;5.65;2.97;;;31.40;86.50;;;;;;5099811;28;20031;-71
2021/08/24 12:32:12;;;;;;;3.05;2.08;;;30.70;88.70;;;;;;5083275;28;20457;-71
2021/08/24 12:34:39;;;;;;;3.25;2.70;;;30.70;90.00;;;;;;5099437;28;20073;-71
2021/08/24 12:37:20;;;;;;;5.45;3.30;;;30.10;89.90;;;;;;5099656;28;20019;-71
2021/08/24 12:39:54;;;;;;;2.63;2.28;;;29.30;87.10;;;;;;5099236;28;20476;-71
2021/08/24 12:42:40;;;;;;;5.13;3.28;;;29.20;88.20;;;;;;5098045;28;20027;-71
2021/08/24 12:45:10;;;;;;;3.88;3.00;;;29.50;90.40;;;;;;5099397;28;20497;-71
2021/08/24 12:47:47;;;;;;;4.45;2.60;;;29.40;88.20;;;;;;5099250;28;20395;-71
2021/08/24 12:50:13;;;;;;;2.75;2.08;;;29.30;90.60;;;;;;5099116;28;20050;-71
2021/08/24 12:52:41;;;;;;;3.53;2.45;;;30.20;90.50;;;;;;5097969;28;20492;-71
2021/08/24 12:55:29;;;;;;;3.50;2.10;;;31.70;87.10;;;;;;5098682;28;20047;-71
2021/08/24 12:58:15;;;;;;;2.58;2.35;;;31.80;83.90;;;;;;5099489;28;20035;-71
2021/08/24 13:01:02;;;;;;;3.78;1.75;;;32.50;85.00;;;;;;5099293;28;20024;-71
2021/08/24 13:03:28;;;;;;;1.70;1.30;;;32.80;84.90;;;;;;5098630;28;20028;-72
2021/08/24 13:06:24;;;;;;;6.75;2.92;;;32.10;84.10;;;;;;5099275;28;20380;-72
2021/08/24 13:08:52;;;;;;;1.88;1.63;;;32.30;83.80;;;;;;5097354;28;20024;-71